createdAt,value
2018-08-28T00:01:08.415Z,0.00
2018-08-28T00:02:08.424Z,0.00
2018-08-28T00:04:01.383Z,0.00
2018-08-28T00:05:01.356Z,0.00
2018-08-28T00:06:54.294Z,0.00
2018-08-28T00:07:54.307Z,0.00
2018-08-28T00:09:47.399Z,0.00
2018-08-28T00:10:47.420Z,0.00
2018-08-28T00:12:40.338Z,0.00
2018-08-28T00:13:40.350Z,0.00
2018-08-28T00:15:33.262Z,0.00
2018-08-28T00:16:33.286Z,0.00
2018-08-28T00:18:26.205Z,0.00
2018-08-28T00:19:26.216Z,0.00
2018-08-28T00:21:19.140Z,0.00
2018-08-28T00:22:19.150Z,0.00
2018-08-28T00:24:12.065Z,0.00
2018-08-28T00:25:12.087Z,0.00
2018-08-28T00:27:05.005Z,0.00
2018-08-28T00:28:05.023Z,0.00
2018-08-28T00:29:57.929Z,0.00
2018-08-28T00:30:57.949Z,0.00
2018-08-28T00:32:50.902Z,0.00
2018-08-28T00:33:50.914Z,0.00
2018-08-28T00:35:43.824Z,0.00
2018-08-28T00:36:43.845Z,0.00
2018-08-28T00:38:36.952Z,0.00
2018-08-28T00:39:36.969Z,0.00
2018-08-28T00:41:29.882Z,0.00
2018-08-28T00:42:29.899Z,0.00
2018-08-28T00:44:22.808Z,0.00
2018-08-28T00:45:22.853Z,0.00
2018-08-28T00:47:15.753Z,0.00
2018-08-28T00:48:15.766Z,0.00
2018-08-28T00:50:08.674Z,0.00
2018-08-28T00:51:08.698Z,0.00
2018-08-28T00:53:01.613Z,0.00
2018-08-28T00:54:01.631Z,0.00
2018-08-28T00:55:54.544Z,0.00
2018-08-28T00:56:54.566Z,0.00
2018-08-28T00:58:47.558Z,0.00
2018-08-28T00:59:47.501Z,0.00
2018-08-28T01:01:40.420Z,0.00
2018-08-28T01:02:40.434Z,0.00
2018-08-28T01:04:33.345Z,0.00
2018-08-28T01:05:33.367Z,0.00
2018-08-28T01:07:26.287Z,0.00
2018-08-28T01:08:26.298Z,0.00
2018-08-28T01:10:19.213Z,0.00
2018-08-28T01:11:19.235Z,0.00
2018-08-28T01:13:12.158Z,0.00
2018-08-28T01:14:12.169Z,0.00
2018-08-28T01:16:05.080Z,0.00
2018-08-28T01:17:05.101Z,0.00
2018-08-28T01:18:58.018Z,0.00
2018-08-28T01:19:58.033Z,0.00
2018-08-28T01:21:50.950Z,0.00
2018-08-28T01:22:50.964Z,0.00
2018-08-28T01:24:43.890Z,0.00
2018-08-28T01:25:43.898Z,0.00
2018-08-28T01:27:36.824Z,0.00
2018-08-28T01:28:36.833Z,0.00
2018-08-28T01:30:29.744Z,0.00
2018-08-28T01:31:29.764Z,0.00
2018-08-28T01:33:22.684Z,0.00
2018-08-28T01:34:22.698Z,0.00
2018-08-28T01:36:15.610Z,0.00
2018-08-28T01:37:15.632Z,0.00
2018-08-28T01:39:08.547Z,0.00
2018-08-28T01:40:08.563Z,0.00
2018-08-28T01:42:01.487Z,0.00
2018-08-28T01:43:01.498Z,0.00
2018-08-28T01:44:54.428Z,0.00
2018-08-28T01:45:54.440Z,0.00
2018-08-28T01:47:47.353Z,0.00
2018-08-28T01:48:47.361Z,0.00
2018-08-28T01:50:40.280Z,0.00
2018-08-28T01:51:40.299Z,0.00
2018-08-28T01:53:33.216Z,0.00
2018-08-28T01:54:33.231Z,0.00
2018-08-28T01:56:26.152Z,0.00
2018-08-28T01:57:26.179Z,0.00
2018-08-28T01:59:19.092Z,0.00
2018-08-28T02:00:19.108Z,0.00
2018-08-28T02:02:12.215Z,0.00
2018-08-28T02:03:12.223Z,0.00
2018-08-28T02:05:05.138Z,0.00
2018-08-28T02:06:05.162Z,0.00
2018-08-28T02:07:58.078Z,0.00
2018-08-28T02:08:58.099Z,0.00
2018-08-28T02:10:51.003Z,0.00
2018-08-28T02:11:51.025Z,0.00
2018-08-28T02:13:43.944Z,0.00
2018-08-28T02:14:43.957Z,0.00
2018-08-28T02:16:36.867Z,0.00
2018-08-28T02:17:36.886Z,0.00
2018-08-28T02:19:29.808Z,0.00
2018-08-28T02:20:29.819Z,0.00
2018-08-28T02:22:22.735Z,0.00
2018-08-28T02:23:22.753Z,0.00
2018-08-28T02:25:15.835Z,0.00
2018-08-28T02:26:15.850Z,0.00
2018-08-28T02:28:08.778Z,0.00
2018-08-28T02:29:08.803Z,0.00
2018-08-28T02:31:01.702Z,0.00
2018-08-28T02:32:01.724Z,0.00
2018-08-28T02:33:54.820Z,0.00
2018-08-28T02:34:54.834Z,0.00
2018-08-28T02:36:47.745Z,0.00
2018-08-28T02:37:47.766Z,0.00
2018-08-28T02:39:40.687Z,0.00
2018-08-28T02:40:40.699Z,0.00
2018-08-28T02:42:33.627Z,0.00
2018-08-28T02:43:33.646Z,0.00
2018-08-28T02:45:26.543Z,0.00
2018-08-28T02:46:26.568Z,0.00
2018-08-28T02:48:19.491Z,0.00
2018-08-28T02:49:19.503Z,0.00
2018-08-28T02:51:12.414Z,0.00
2018-08-28T02:52:12.434Z,0.00
2018-08-28T02:54:05.359Z,0.00
2018-08-28T02:55:05.368Z,0.00
2018-08-28T02:56:58.275Z,0.00
2018-08-28T02:57:58.306Z,0.00
2018-08-28T02:59:51.218Z,0.00
2018-08-28T03:00:51.229Z,0.00
2018-08-28T03:02:44.144Z,0.00
2018-08-28T03:03:44.165Z,0.00
2018-08-28T03:05:37.085Z,0.00
2018-08-28T03:06:37.091Z,0.00
2018-08-28T03:08:30.015Z,0.00
2018-08-28T03:09:30.028Z,0.00
2018-08-28T03:11:22.976Z,0.00
2018-08-28T03:12:22.959Z,0.00
2018-08-28T03:14:15.868Z,0.00
2018-08-28T03:15:15.891Z,0.00
2018-08-28T03:17:08.806Z,0.00
2018-08-28T03:18:08.821Z,0.00
2018-08-28T03:20:01.751Z,0.00
2018-08-28T03:21:01.756Z,0.00
2018-08-28T03:22:54.687Z,0.00
2018-08-28T03:23:54.690Z,0.00
2018-08-28T03:25:47.604Z,0.00
2018-08-28T03:26:47.631Z,0.00
2018-08-28T03:28:40.549Z,0.00
2018-08-28T03:29:40.554Z,0.00
2018-08-28T03:31:33.466Z,0.00
2018-08-28T03:32:33.493Z,0.00
2018-08-28T03:34:26.429Z,0.00
2018-08-28T03:35:26.447Z,0.00
2018-08-28T03:37:19.351Z,0.00
2018-08-28T03:38:19.375Z,0.00
2018-08-28T03:40:12.293Z,0.00
2018-08-28T03:41:12.306Z,0.00
2018-08-28T03:43:05.225Z,0.00
2018-08-28T03:44:05.238Z,0.00
2018-08-28T03:45:58.149Z,0.00
2018-08-28T03:46:58.175Z,0.00
2018-08-28T03:48:51.092Z,0.00
2018-08-28T03:49:51.106Z,0.00
2018-08-28T03:51:44.019Z,0.00
2018-08-28T03:52:44.038Z,0.00
2018-08-28T03:54:36.956Z,0.00
2018-08-28T03:55:36.974Z,0.00
2018-08-28T03:57:29.881Z,0.00
2018-08-28T03:58:29.903Z,0.00
2018-08-28T04:00:22.820Z,0.00
2018-08-28T04:01:22.838Z,0.00
2018-08-28T04:03:15.753Z,0.00
2018-08-28T04:04:15.766Z,0.00
2018-08-28T04:06:08.682Z,4.00
2018-08-28T04:07:08.701Z,4.00
2018-08-28T04:09:01.619Z,4.00
2018-08-28T04:10:01.632Z,4.00
2018-08-28T04:11:54.542Z,8.00
2018-08-28T04:12:54.565Z,4.00
2018-08-28T04:14:47.485Z,8.00
2018-08-28T04:15:47.498Z,12.00
2018-08-28T04:17:40.408Z,16.00
2018-08-28T04:18:40.428Z,20.00
2018-08-28T04:20:33.511Z,20.00
2018-08-28T04:21:33.539Z,28.00
2018-08-28T04:23:26.443Z,36.00
2018-08-28T04:24:26.456Z,40.00
2018-08-28T04:26:19.365Z,44.00
2018-08-28T04:27:19.388Z,52.00
2018-08-28T04:29:12.308Z,64.00
2018-08-28T04:30:12.324Z,72.00
2018-08-28T04:32:05.230Z,92.00
2018-08-28T04:33:05.250Z,100.00
2018-08-28T04:34:58.183Z,124.00
2018-08-28T04:35:58.197Z,136.00
2018-08-28T04:37:51.108Z,156.00
2018-08-28T04:38:51.130Z,164.00
2018-08-28T04:40:44.055Z,184.00
2018-08-28T04:41:44.085Z,196.00
2018-08-28T04:43:36.997Z,228.00
2018-08-28T04:44:37.015Z,244.00
2018-08-28T04:46:29.931Z,280.00
2018-08-28T04:47:29.959Z,292.00
2018-08-28T04:49:22.876Z,316.00
2018-08-28T04:50:22.886Z,336.00
2018-08-28T04:52:15.798Z,364.00
2018-08-28T04:53:15.821Z,380.00
2018-08-28T04:55:09.735Z,416.00
2018-08-28T04:56:09.747Z,440.00
2018-08-28T04:58:02.657Z,476.00
2018-08-28T04:59:02.678Z,500.00
2018-08-28T05:00:55.641Z,540.00
2018-08-28T05:01:55.616Z,568.00
2018-08-28T05:03:48.534Z,636.00
2018-08-28T05:04:48.541Z,668.00
2018-08-28T05:06:41.463Z,708.00
2018-08-28T05:07:41.494Z,712.00
2018-08-28T05:09:34.404Z,720.00
2018-08-28T05:10:34.421Z,728.00
2018-08-28T05:12:27.331Z,740.00
2018-08-28T05:13:27.353Z,744.00
2018-08-28T05:15:20.286Z,776.00
2018-08-28T05:16:20.303Z,812.00
2018-08-28T05:18:13.211Z,892.00
2018-08-28T05:19:13.239Z,940.00
2018-08-28T05:21:06.164Z,1012.00
2018-08-28T05:22:06.177Z,1040.00
2018-08-28T05:23:59.094Z,1064.00
2018-08-28T05:24:59.108Z,1064.00
2018-08-28T05:26:52.066Z,1088.00
2018-08-28T05:27:52.040Z,1112.00
2018-08-28T05:29:45.164Z,1176.00
2018-08-28T05:30:44.976Z,1212.00
2018-08-28T05:32:37.883Z,1280.00
2018-08-28T05:33:37.916Z,1316.00
2018-08-28T05:35:30.824Z,1392.00
2018-08-28T05:36:30.838Z,1444.00
2018-08-28T05:38:23.751Z,1540.00
2018-08-28T05:39:23.768Z,1584.00
2018-08-28T05:41:16.691Z,1676.00
2018-08-28T05:42:16.699Z,1740.00
2018-08-28T05:44:09.626Z,1928.00
2018-08-28T05:45:09.636Z,2020.00
2018-08-28T05:47:02.583Z,2096.00
2018-08-28T05:48:02.602Z,2104.00
2018-08-28T05:49:55.522Z,2132.00
2018-08-28T05:50:55.534Z,2176.00
2018-08-28T05:52:48.452Z,2284.00
2018-08-28T05:53:48.471Z,2356.00
2018-08-28T05:55:41.400Z,2468.00
2018-08-28T05:56:41.403Z,2496.00
2018-08-28T05:58:34.871Z,2528.00
2018-08-28T05:59:34.359Z,2544.00
2018-08-28T06:01:27.291Z,2556.00
2018-08-28T06:02:27.270Z,2584.00
2018-08-28T06:04:20.194Z,2716.00
2018-08-28T06:05:20.206Z,2800.00
2018-08-28T06:07:13.303Z,2892.00
2018-08-28T06:08:13.324Z,2912.00
2018-08-28T06:10:06.266Z,2988.00
2018-08-28T06:11:06.281Z,3056.00
2018-08-28T06:12:59.198Z,3144.00
2018-08-28T06:13:59.222Z,3148.00
2018-08-28T06:15:52.142Z,3160.00
2018-08-28T06:16:52.157Z,3184.00
2018-08-28T06:18:45.076Z,3300.00
2018-08-28T06:19:45.099Z,3392.00
2018-08-28T06:21:38.020Z,3560.00
2018-08-28T06:22:38.033Z,3588.00
2018-08-28T06:24:30.956Z,3660.00
2018-08-28T06:25:30.967Z,3728.00
2018-08-28T06:27:23.879Z,3820.00
2018-08-28T06:28:23.904Z,3832.00
2018-08-28T06:30:16.826Z,3844.00
2018-08-28T06:31:16.842Z,3860.00
2018-08-28T06:33:09.756Z,3900.00
2018-08-28T06:34:09.779Z,3928.00
2018-08-28T06:36:02.700Z,4064.00
2018-08-28T06:37:02.716Z,4148.00
2018-08-28T06:38:55.633Z,4240.00
2018-08-28T06:39:55.650Z,4288.00
2018-08-28T06:41:48.572Z,4380.00
2018-08-28T06:42:48.588Z,4404.00
2018-08-28T06:44:41.513Z,4448.00
2018-08-28T06:45:41.526Z,4492.00
2018-08-28T06:47:34.991Z,4660.00
2018-08-28T06:48:34.464Z,4764.00
2018-08-28T06:50:27.413Z,4988.00
2018-08-28T06:51:27.401Z,5088.00
2018-08-28T06:53:20.331Z,5204.00
2018-08-28T06:54:20.579Z,5224.00
2018-08-28T06:56:14.268Z,5272.00
2018-08-28T06:57:14.283Z,5300.00
2018-08-28T06:59:07.198Z,5352.00
2018-08-28T07:00:07.227Z,5440.00
2018-08-28T07:02:00.150Z,5696.00
2018-08-28T07:03:00.169Z,5840.00
2018-08-28T07:04:53.115Z,5996.00
2018-08-28T07:05:53.126Z,6068.00
2018-08-28T07:07:46.051Z,6308.00
2018-08-28T07:08:46.079Z,6392.00
2018-08-28T07:10:39.000Z,6480.00
2018-08-28T07:11:39.014Z,6568.00
2018-08-28T07:13:31.933Z,6820.00
2018-08-28T07:14:31.955Z,6980.00
2018-08-28T07:16:24.902Z,7232.00
2018-08-28T07:17:24.908Z,7296.00
2018-08-28T07:19:18.166Z,7296.00
2018-08-28T07:20:17.850Z,7272.00
2018-08-28T07:22:10.791Z,7044.00
2018-08-28T07:23:10.793Z,6896.00
2018-08-28T07:25:03.714Z,6776.00
2018-08-28T07:26:03.832Z,6792.00
2018-08-28T07:27:56.646Z,7000.00
2018-08-28T07:28:56.670Z,7204.00
2018-08-28T07:30:49.596Z,7496.00
2018-08-28T07:31:49.693Z,7556.00
2018-08-28T07:33:42.537Z,7576.00
2018-08-28T07:34:42.646Z,7568.00
2018-08-28T07:36:35.486Z,7456.00
2018-08-28T07:37:35.639Z,7444.00
2018-08-28T07:39:28.415Z,7508.00
2018-08-28T07:40:28.445Z,7468.00
2018-08-28T07:42:21.392Z,7356.00
2018-08-28T07:43:21.402Z,7344.00
2018-08-28T07:45:14.326Z,7336.00
2018-08-28T07:46:14.342Z,7316.00
2018-08-28T07:48:07.283Z,7312.00
2018-08-28T07:49:07.285Z,7396.00
2018-08-28T07:51:00.211Z,7748.00
2018-08-28T07:52:00.228Z,7992.00
2018-08-28T07:53:53.176Z,8440.00
2018-08-28T07:54:53.165Z,8636.00
2018-08-28T07:56:46.092Z,8832.00
2018-08-28T07:57:46.109Z,8888.00
2018-08-28T07:59:39.253Z,8976.00
2018-08-28T08:00:39.258Z,9028.00
2018-08-28T08:02:32.185Z,9160.00
2018-08-28T08:03:32.201Z,9216.00
2018-08-28T08:05:25.130Z,9328.00
2018-08-28T08:06:25.161Z,9308.00
2018-08-28T08:08:18.063Z,9116.00
2018-08-28T08:09:18.087Z,9092.00
2018-08-28T08:11:11.021Z,9292.00
2018-08-28T08:12:11.033Z,9428.00
2018-08-28T08:14:03.983Z,9672.00
2018-08-28T08:15:04.024Z,9788.00
2018-08-28T08:16:57.005Z,9992.00
2018-08-28T08:17:56.970Z,10064.00
2018-08-28T08:19:49.943Z,10136.00
2018-08-28T08:20:49.947Z,10124.00
2018-08-28T08:22:42.931Z,10148.00
2018-08-28T08:23:42.927Z,10196.00
2018-08-28T08:25:35.845Z,10336.00
2018-08-28T08:26:35.920Z,10448.00
2018-08-28T08:28:28.881Z,10684.00
2018-08-28T08:29:28.921Z,10892.00
2018-08-28T08:31:21.973Z,11280.00
2018-08-28T08:32:21.863Z,11376.00
2018-08-28T08:34:14.774Z,11360.00
2018-08-28T08:35:14.853Z,11408.00
2018-08-28T08:37:07.839Z,11480.00
2018-08-28T08:38:07.764Z,11452.00
2018-08-28T08:40:00.685Z,11388.00
2018-08-28T08:41:00.749Z,11416.00
2018-08-28T08:42:53.701Z,11708.00
2018-08-28T08:43:53.712Z,11856.00
2018-08-28T08:45:47.584Z,11904.00
2018-08-28T08:46:47.638Z,11952.00
2018-08-28T08:48:41.549Z,12100.00
2018-08-28T08:49:41.567Z,12204.00
2018-08-28T08:51:34.523Z,12304.00
2018-08-28T08:52:34.530Z,12240.00
2018-08-28T08:54:27.425Z,12056.00
2018-08-28T08:55:27.466Z,12060.00
2018-08-28T08:57:20.524Z,12180.00
2018-08-28T08:58:20.463Z,12224.00
2018-08-28T09:00:13.384Z,12056.00
2018-08-28T09:01:13.398Z,11988.00
2018-08-28T09:03:06.375Z,12016.00
2018-08-28T09:04:06.425Z,12160.00
2018-08-28T09:06:00.405Z,12456.00
2018-08-28T09:07:00.392Z,12472.00
2018-08-28T09:08:53.210Z,12480.00
2018-08-28T09:09:53.291Z,12504.00
2018-08-28T09:11:46.233Z,12512.00
2018-08-28T09:12:46.235Z,12520.00
2018-08-28T09:14:39.148Z,12700.00
2018-08-28T09:15:39.168Z,12716.00
2018-08-28T09:17:32.114Z,12460.00
2018-08-28T09:18:32.130Z,12340.00
2018-08-28T09:20:25.072Z,12340.00
2018-08-28T09:21:25.083Z,12428.00
2018-08-28T09:23:18.005Z,12672.00
2018-08-28T09:24:18.014Z,12740.00
2018-08-28T09:26:10.969Z,12804.00
2018-08-28T09:27:11.007Z,12784.00
2018-08-28T09:29:03.925Z,12416.00
2018-08-28T09:30:03.987Z,11860.00
2018-08-28T09:31:56.911Z,10612.00
2018-08-28T09:32:56.909Z,10672.00
2018-08-28T09:34:49.865Z,11012.00
2018-08-28T09:35:49.829Z,11216.00
2018-08-28T09:37:42.838Z,11840.00
2018-08-28T09:38:42.845Z,12324.00
2018-08-28T09:40:35.695Z,12704.00
2018-08-28T09:41:35.723Z,12760.00
2018-08-28T09:43:28.760Z,12924.00
2018-08-28T09:44:28.697Z,13004.00
2018-08-28T09:46:21.662Z,13260.00
2018-08-28T09:47:21.643Z,13296.00
2018-08-28T09:49:14.580Z,13344.00
2018-08-28T09:50:14.637Z,13080.00
2018-08-28T09:52:07.610Z,12532.00
2018-08-28T09:53:07.575Z,11884.00
2018-08-28T09:55:00.493Z,9800.00
2018-08-28T09:56:00.507Z,8900.00
2018-08-28T09:57:53.513Z,8004.00
2018-08-28T09:58:53.449Z,7924.00
2018-08-28T10:00:46.355Z,8644.00
2018-08-28T10:01:46.438Z,8948.00
2018-08-28T10:03:39.429Z,8596.00
2018-08-28T10:04:39.366Z,8276.00
2018-08-28T10:06:32.271Z,7656.00
2018-08-28T10:07:32.326Z,7184.00
2018-08-28T10:09:25.223Z,6108.00
2018-08-28T10:10:25.266Z,5340.00
2018-08-28T10:12:18.243Z,4576.00
2018-08-28T10:13:18.215Z,4520.00
2018-08-28T10:15:11.125Z,5140.00
2018-08-28T10:16:11.148Z,5512.00
2018-08-28T10:18:04.200Z,5976.00
2018-08-28T10:19:04.117Z,6084.00
2018-08-28T10:20:57.063Z,6304.00
2018-08-28T10:21:57.070Z,6364.00
2018-08-28T10:23:49.989Z,6344.00
2018-08-28T10:24:50.024Z,6628.00
2018-08-28T10:26:42.961Z,7828.00
2018-08-28T10:27:42.970Z,8352.00
2018-08-28T10:29:35.903Z,9068.00
2018-08-28T10:30:35.917Z,9080.00
2018-08-28T10:32:28.813Z,8860.00
2018-08-28T10:33:28.831Z,8776.00
2018-08-28T10:35:21.788Z,8852.00
2018-08-28T10:36:21.819Z,9092.00
2018-08-28T10:38:14.782Z,9096.00
2018-08-28T10:39:14.749Z,8960.00
2018-08-28T10:41:07.684Z,8720.00
2018-08-28T10:42:07.688Z,8724.00
2018-08-28T10:44:00.643Z,8700.00
2018-08-28T10:45:00.630Z,8684.00
2018-08-28T10:46:53.677Z,8928.00
2018-08-28T10:47:53.589Z,9088.00
2018-08-28T10:49:46.480Z,9296.00
2018-08-28T10:50:46.508Z,9652.00
2018-08-28T10:52:39.452Z,9652.00
2018-08-28T10:53:39.974Z,9460.00
2018-08-28T10:55:32.388Z,9228.00
2018-08-28T10:56:32.413Z,8972.00
2018-08-28T10:58:25.433Z,8944.00
2018-08-28T10:59:25.341Z,9196.00
2018-08-28T11:01:19.767Z,9316.00
2018-08-28T11:02:18.351Z,9416.00
2018-08-28T11:04:11.290Z,9572.00
2018-08-28T11:05:11.267Z,9520.00
2018-08-28T11:07:04.236Z,9604.00
2018-08-28T11:08:04.219Z,9832.00
2018-08-28T11:09:57.140Z,10012.00
2018-08-28T11:10:57.213Z,10112.00
2018-08-28T11:12:50.194Z,9872.00
2018-08-28T11:13:50.146Z,9648.00
2018-08-28T11:15:43.096Z,9024.00
2018-08-28T11:16:43.096Z,8824.00
2018-08-28T11:18:36.063Z,8636.00
2018-08-28T11:19:36.036Z,8636.00
2018-08-28T11:21:28.966Z,8764.00
2018-08-28T11:22:28.959Z,8620.00
2018-08-28T11:24:21.957Z,8276.00
2018-08-28T11:25:21.920Z,8116.00
2018-08-28T11:27:14.832Z,8768.00
2018-08-28T11:28:14.922Z,9116.00
2018-08-28T11:30:07.849Z,9224.00
2018-08-28T11:31:07.826Z,9092.00
2018-08-28T11:33:00.789Z,9332.00
2018-08-28T11:34:00.756Z,9612.00
2018-08-28T11:35:53.671Z,9596.00
2018-08-28T11:36:53.710Z,9640.00
2018-08-28T11:38:46.675Z,9584.00
2018-08-28T11:39:46.686Z,9532.00
2018-08-28T11:41:39.614Z,9588.00
2018-08-28T11:42:39.651Z,9688.00
2018-08-28T11:44:32.605Z,10124.00
2018-08-28T11:45:32.591Z,10308.00
2018-08-28T11:47:25.511Z,10336.00
2018-08-28T11:48:25.524Z,10272.00
2018-08-28T11:50:18.578Z,10184.00
2018-08-28T11:51:18.471Z,10108.00
2018-08-28T11:53:11.556Z,10056.00
2018-08-28T11:54:11.465Z,10016.00
2018-08-28T11:56:04.391Z,9772.00
2018-08-28T11:57:04.390Z,9640.00
2018-08-28T11:58:57.363Z,9364.00
2018-08-28T11:59:57.326Z,9176.00
2018-08-28T12:01:50.307Z,9076.00
2018-08-28T12:02:50.300Z,9100.00
2018-08-28T12:04:43.207Z,8940.00
2018-08-28T12:05:43.247Z,8936.00
2018-08-28T12:07:36.169Z,9452.00
2018-08-28T12:08:36.179Z,9724.00
2018-08-28T12:10:29.204Z,9792.00
2018-08-28T12:11:29.143Z,9760.00
2018-08-28T12:13:22.067Z,9596.00
2018-08-28T12:14:22.098Z,9464.00
2018-08-28T12:16:15.033Z,9880.00
2018-08-28T12:17:15.005Z,10216.00
2018-08-28T12:19:08.028Z,10756.00
2018-08-28T12:20:08.031Z,10852.00
2018-08-28T12:22:00.882Z,11380.00
2018-08-28T12:23:00.976Z,11680.00
2018-08-28T12:25:01.007Z,11952.00
2018-08-28T12:25:54.440Z,12100.00
2018-08-28T12:27:46.846Z,12404.00
2018-08-28T12:28:46.890Z,12324.00
2018-08-28T12:30:39.834Z,12324.00
2018-08-28T12:31:39.805Z,12288.00
2018-08-28T12:33:32.849Z,12352.00
2018-08-28T12:34:32.738Z,12216.00
2018-08-28T12:36:25.661Z,12140.00
2018-08-28T12:37:25.687Z,12108.00
2018-08-28T12:39:18.717Z,11880.00
2018-08-28T12:40:18.631Z,11724.00
2018-08-28T12:42:11.578Z,11640.00
2018-08-28T12:43:11.633Z,11768.00
2018-08-28T12:45:04.608Z,11252.00
2018-08-28T12:46:04.577Z,11128.00
2018-08-28T12:47:57.486Z,11168.00
2018-08-28T12:48:57.522Z,11316.00
2018-08-28T12:50:50.543Z,11108.00
2018-08-28T12:51:50.482Z,10784.00
2018-08-28T12:53:43.480Z,10076.00
2018-08-28T12:54:43.507Z,10316.00
2018-08-28T12:56:36.367Z,10972.00
2018-08-28T12:57:36.392Z,11056.00
2018-08-28T12:59:29.390Z,10236.00
2018-08-28T13:00:29.454Z,9836.00
2018-08-28T13:02:22.382Z,10396.00
2018-08-28T13:03:22.283Z,10168.00
2018-08-28T13:05:15.326Z,9656.00
2018-08-28T13:06:15.289Z,9892.00
2018-08-28T13:08:08.180Z,10420.00
2018-08-28T13:09:08.230Z,10356.00
2018-08-28T13:11:01.166Z,9568.00
2018-08-28T13:12:01.175Z,9384.00
2018-08-28T13:13:54.125Z,10020.00
2018-08-28T13:14:54.270Z,10068.00
2018-08-28T13:16:47.058Z,9384.00
2018-08-28T13:17:47.096Z,9208.00
2018-08-28T13:19:40.049Z,9688.00
2018-08-28T13:20:40.042Z,9792.00
2018-08-28T13:22:32.957Z,9820.00
2018-08-28T13:23:32.971Z,9580.00
2018-08-28T13:25:25.976Z,8760.00
2018-08-28T13:26:25.914Z,8408.00
2018-08-28T13:28:18.866Z,8052.00
2018-08-28T13:29:19.022Z,7900.00
2018-08-28T13:31:11.876Z,7580.00
2018-08-28T13:32:11.884Z,7300.00
2018-08-28T13:34:04.779Z,6876.00
2018-08-28T13:35:04.810Z,6828.00
2018-08-28T13:36:57.759Z,6472.00
2018-08-28T13:37:57.792Z,6236.00
2018-08-28T13:39:50.748Z,6040.00
2018-08-28T13:40:50.790Z,5924.00
2018-08-28T13:42:44.919Z,6140.00
2018-08-28T13:43:43.739Z,6224.00
2018-08-28T13:45:36.749Z,6276.00
2018-08-28T13:46:36.693Z,6492.00
2018-08-28T13:48:29.555Z,7184.00
2018-08-28T13:49:30.127Z,7664.00
2018-08-28T13:51:22.599Z,8608.00
2018-08-28T13:52:22.621Z,8852.00
2018-08-28T13:54:15.644Z,8380.00
2018-08-28T13:55:15.543Z,8376.00
2018-08-28T13:57:08.423Z,8552.00
2018-08-28T13:58:08.468Z,8988.00
2018-08-28T14:00:01.474Z,9408.00
2018-08-28T14:01:01.406Z,9172.00
2018-08-28T14:02:54.345Z,8816.00
2018-08-28T14:03:54.390Z,8560.00
2018-08-28T14:05:47.308Z,8564.00
2018-08-28T14:06:47.295Z,8572.00
2018-08-28T14:08:40.256Z,8768.00
2018-08-28T14:09:40.285Z,8824.00
2018-08-28T14:11:33.298Z,9088.00
2018-08-28T14:12:33.237Z,9116.00
2018-08-28T14:14:26.188Z,8944.00
2018-08-28T14:15:26.207Z,8968.00
2018-08-28T14:17:19.123Z,9212.00
2018-08-28T14:18:19.130Z,9080.00
2018-08-28T14:20:12.164Z,8672.00
2018-08-28T14:21:12.058Z,8580.00
2018-08-28T14:23:05.016Z,8584.00
2018-08-28T14:24:05.070Z,8924.00
2018-08-28T14:25:57.976Z,9128.00
2018-08-28T14:26:57.990Z,9080.00
2018-08-28T14:28:50.996Z,9132.00
2018-08-28T14:29:50.953Z,9040.00
2018-08-28T14:31:44.123Z,8988.00
2018-08-28T14:32:44.011Z,8900.00
2018-08-28T14:34:36.934Z,8972.00
2018-08-28T14:35:37.023Z,9020.00
2018-08-28T14:37:29.877Z,8964.00
2018-08-28T14:38:29.901Z,8812.00
2018-08-28T14:40:22.910Z,8364.00
2018-08-28T14:41:22.856Z,8276.00
2018-08-28T14:43:15.773Z,8520.00
2018-08-28T14:44:15.843Z,8848.00
2018-08-28T14:46:08.734Z,8976.00
2018-08-28T14:47:08.764Z,8624.00
2018-08-28T14:49:01.667Z,8152.00
2018-08-28T14:50:01.911Z,8092.00
2018-08-28T14:51:54.833Z,7656.00
2018-08-28T14:52:54.854Z,7516.00
2018-08-28T14:54:47.807Z,7588.00
2018-08-28T14:55:47.823Z,7432.00
2018-08-28T14:57:40.747Z,6920.00
2018-08-28T14:58:40.779Z,6620.00
2018-08-28T15:00:33.710Z,6400.00
2018-08-28T15:01:33.737Z,6336.00
2018-08-28T15:03:26.650Z,6600.00
2018-08-28T15:04:26.677Z,6736.00
2018-08-28T15:06:19.622Z,6832.00
2018-08-28T15:07:19.637Z,6780.00
2018-08-28T15:09:12.567Z,6692.00
2018-08-28T15:10:12.589Z,6780.00
2018-08-28T15:12:05.521Z,7040.00
2018-08-28T15:13:05.543Z,7024.00
2018-08-28T15:14:58.670Z,6704.00
2018-08-28T15:15:58.691Z,6612.00
2018-08-28T15:17:51.768Z,6496.00
2018-08-28T15:18:51.799Z,6320.00
2018-08-28T15:20:44.737Z,6352.00
2018-08-28T15:21:44.752Z,6344.00
2018-08-28T15:23:37.671Z,6460.00
2018-08-28T15:24:37.702Z,6508.00
2018-08-28T15:26:30.623Z,6400.00
2018-08-28T15:27:30.709Z,6280.00
2018-08-28T15:29:23.565Z,5760.00
2018-08-28T15:30:23.600Z,5668.00
2018-08-28T15:32:16.533Z,5416.00
2018-08-28T15:33:16.548Z,5212.00
2018-08-28T15:35:09.474Z,4864.00
2018-08-28T15:36:09.495Z,4744.00
2018-08-28T15:38:02.420Z,4616.00
2018-08-28T15:39:02.442Z,4568.00
2018-08-28T15:40:55.373Z,4500.00
2018-08-28T15:41:55.395Z,4480.00
2018-08-28T15:43:48.314Z,4416.00
2018-08-28T15:44:48.338Z,4372.00
2018-08-28T15:46:41.278Z,4308.00
2018-08-28T15:47:41.288Z,4288.00
2018-08-28T15:49:34.200Z,4240.00
2018-08-28T15:50:34.238Z,4212.00
2018-08-28T15:52:27.165Z,4168.00
2018-08-28T15:53:27.182Z,4148.00
2018-08-28T15:55:20.117Z,4120.00
2018-08-28T15:56:20.126Z,4104.00
2018-08-28T15:58:13.042Z,4080.00
2018-08-28T15:59:13.074Z,4068.00
2018-08-28T16:01:06.005Z,4032.00
2018-08-28T16:02:06.098Z,4016.00
2018-08-28T16:03:58.953Z,3984.00
2018-08-28T16:04:58.981Z,3976.00
2018-08-28T16:06:51.913Z,3944.00
2018-08-28T16:07:51.933Z,3932.00
2018-08-28T16:09:44.855Z,3912.00
2018-08-28T16:10:44.876Z,3896.00
2018-08-28T16:12:37.819Z,3860.00
2018-08-28T16:13:37.870Z,3832.00
2018-08-28T16:15:30.752Z,3780.00
2018-08-28T16:16:30.771Z,3752.00
2018-08-28T16:18:23.697Z,3696.00
2018-08-28T16:19:23.724Z,3676.00
2018-08-28T16:21:16.651Z,3632.00
2018-08-28T16:22:16.674Z,3608.00
2018-08-28T16:24:09.591Z,3572.00
2018-08-28T16:25:09.617Z,3556.00
2018-08-28T16:27:02.543Z,3524.00
2018-08-28T16:28:02.567Z,3504.00
2018-08-28T16:29:55.506Z,3468.00
2018-08-28T16:31:03.140Z,3448.00
2018-08-28T16:32:48.437Z,3408.00
2018-08-28T16:33:48.482Z,3388.00
2018-08-28T16:35:41.418Z,3352.00
2018-08-28T16:36:41.396Z,3332.00
2018-08-28T16:38:34.315Z,3288.00
2018-08-28T16:39:34.432Z,3264.00
2018-08-28T16:41:27.269Z,3220.00
2018-08-28T16:42:27.290Z,3204.00
2018-08-28T16:44:20.206Z,3164.00
2018-08-28T16:45:20.236Z,3136.00
2018-08-28T16:47:13.172Z,3092.00
2018-08-28T16:48:13.191Z,3056.00
2018-08-28T16:50:06.172Z,3000.00
2018-08-28T16:51:06.127Z,2968.00
2018-08-28T16:52:59.079Z,2908.00
2018-08-28T16:53:59.096Z,2876.00
2018-08-28T16:55:52.084Z,2816.00
2018-08-28T16:56:52.040Z,2784.00
2018-08-28T16:58:44.969Z,2732.00
2018-08-28T16:59:45.008Z,2708.00
2018-08-28T17:01:38.032Z,2664.00
2018-08-28T17:02:37.962Z,2632.00
2018-08-28T17:04:30.868Z,2580.00
2018-08-28T17:05:30.900Z,2548.00
2018-08-28T17:07:23.973Z,2492.00
2018-08-28T17:08:23.993Z,2460.00
2018-08-28T17:10:16.913Z,2404.00
2018-08-28T17:11:16.934Z,2372.00
2018-08-28T17:13:09.871Z,2316.00
2018-08-28T17:14:09.886Z,2292.00
2018-08-28T17:16:02.833Z,2232.00
2018-08-28T17:17:02.853Z,2196.00
2018-08-28T17:18:55.774Z,2136.00
2018-08-28T17:19:55.796Z,2104.00
2018-08-28T17:21:49.893Z,2040.00
2018-08-28T17:22:48.737Z,2004.00
2018-08-28T17:24:41.696Z,1936.00
2018-08-28T17:25:41.689Z,1904.00
2018-08-28T17:27:35.615Z,1836.00
2018-08-28T17:28:35.634Z,1800.00
2018-08-28T17:30:28.560Z,1736.00
2018-08-28T17:31:28.579Z,1696.00
2018-08-28T17:33:21.623Z,1628.00
2018-08-28T17:34:21.545Z,1588.00
2018-08-28T17:36:14.469Z,1520.00
2018-08-28T17:37:14.623Z,1480.00
2018-08-28T17:39:07.415Z,1396.00
2018-08-28T17:40:07.428Z,1356.00
2018-08-28T17:42:00.588Z,1276.00
2018-08-28T17:43:00.606Z,1236.00
2018-08-28T17:44:53.524Z,1168.00
2018-08-28T17:45:53.544Z,1128.00
2018-08-28T17:47:46.466Z,1060.00